createdAt,value
2023-03-05T00:01:10.898Z,10.50
2023-03-05T00:03:37.850Z,9.90
2023-03-05T00:06:05.647Z,15.60
2023-03-05T00:08:34.730Z,10.10
2023-03-05T00:11:09.916Z,10.40
2023-03-05T00:13:37.112Z,10.50
2023-03-05T00:16:06.196Z,9.00
2023-03-05T00:18:33.369Z,9.70
2023-03-05T00:21:02.791Z,10.60
2023-03-05T00:23:29.627Z,9.80
2023-03-05T00:25:56.470Z,9.60
2023-03-05T00:28:23.524Z,7.30
2023-03-05T00:30:50.388Z,10.00
2023-03-05T00:33:17.314Z,9.30
2023-03-05T00:35:48.528Z,8.10
2023-03-05T00:38:15.307Z,12.10
2023-03-05T00:40:42.129Z,8.10
2023-03-05T00:43:11.596Z,9.60
2023-03-05T00:45:38.419Z,9.60
2023-03-05T00:48:05.561Z,12.00
2023-03-05T00:50:32.416Z,9.40
2023-03-05T00:52:59.257Z,10.50
2023-03-05T00:55:26.212Z,12.60
2023-03-05T00:57:53.067Z,7.70
2023-03-05T01:00:22.443Z,10.50
2023-03-05T01:02:49.211Z,11.30
2023-03-05T01:05:16.256Z,7.90
2023-03-05T01:07:42.996Z,9.20
2023-03-05T01:10:11.706Z,12.00
2023-03-05T01:12:39.287Z,8.40
2023-03-05T01:15:06.920Z,6.30
2023-03-05T01:17:34.601Z,8.50
2023-03-05T01:20:03.760Z,9.20
2023-03-05T01:22:30.478Z,12.20
2023-03-05T01:24:57.654Z,6.60
2023-03-05T01:27:24.404Z,7.60
2023-03-05T01:29:51.251Z,13.30
2023-03-05T01:32:18.080Z,8.60
2023-03-05T01:34:44.994Z,8.70
2023-03-05T01:37:11.946Z,7.30
2023-03-05T01:39:38.839Z,5.80
2023-03-05T01:42:06.397Z,10.20
2023-03-05T01:44:34.128Z,9.60
2023-03-05T01:47:01.227Z,13.10
2023-03-05T01:49:31.135Z,8.10
2023-03-05T01:52:06.820Z,13.20
2023-03-05T01:54:37.383Z,8.50
2023-03-05T01:57:09.195Z,7.50
2023-03-05T01:59:38.053Z,7.20
2023-03-05T02:02:08.141Z,8.80
2023-03-05T02:04:41.961Z,9.50
2023-03-05T02:07:09.713Z,9.50
2023-03-05T02:09:40.945Z,7.40
2023-03-05T02:12:09.189Z,9.60
2023-03-05T02:14:39.422Z,9.40
2023-03-05T02:17:06.253Z,10.50
2023-03-05T02:19:53.907Z,8.80
2023-03-05T02:22:22.781Z,11.10
2023-03-05T02:24:52.730Z,9.40
2023-03-05T02:27:23.370Z,11.30
2023-03-05T02:29:52.169Z,6.60
2023-03-05T02:32:19.000Z,10.10
2023-03-05T02:34:45.919Z,8.50
2023-03-05T02:37:12.775Z,7.00
2023-03-05T02:39:39.835Z,8.60
2023-03-05T02:42:07.182Z,8.10
2023-03-05T02:44:33.986Z,6.60
2023-03-05T02:47:01.172Z,11.50
2023-03-05T02:49:28.872Z,6.70
2023-03-05T02:51:55.667Z,7.50
2023-03-05T02:54:22.550Z,5.90
2023-03-05T02:56:50.006Z,8.50
2023-03-05T02:59:16.758Z,11.30
2023-03-05T03:01:43.595Z,9.10
2023-03-05T03:04:10.465Z,8.00
2023-03-05T03:06:37.236Z,9.30
2023-03-05T03:09:04.234Z,7.90
2023-03-05T03:11:31.181Z,10.40
2023-03-05T03:14:00.486Z,8.50
2023-03-05T03:16:27.198Z,11.50
2023-03-05T03:18:56.881Z,12.40
2023-03-05T03:21:25.581Z,5.80
2023-03-05T03:23:55.654Z,8.10
2023-03-05T03:26:22.515Z,12.50
2023-03-05T03:28:51.804Z,12.60
2023-03-05T03:31:18.733Z,7.20
2023-03-05T03:33:45.812Z,12.60
2023-03-05T03:36:13.156Z,9.00
2023-03-05T03:38:39.876Z,12.00
2023-03-05T03:41:08.156Z,10.40
2023-03-05T03:43:38.135Z,9.40
2023-03-05T03:46:07.005Z,13.00
2023-03-05T03:48:33.921Z,10.10
2023-03-05T03:51:04.693Z,11.70
2023-03-05T03:53:31.845Z,10.60
2023-03-05T03:55:59.607Z,7.20
2023-03-05T03:58:28.908Z,10.10
2023-03-05T04:00:55.635Z,14.20
2023-03-05T04:03:22.378Z,11.10
2023-03-05T04:05:51.710Z,10.20
2023-03-05T04:08:18.639Z,9.30
2023-03-05T04:10:45.507Z,11.20
2023-03-05T04:13:12.455Z,10.40
2023-03-05T04:15:41.580Z,9.30
2023-03-05T04:18:09.301Z,15.30
2023-03-05T04:20:36.136Z,10.80
2023-03-05T04:23:03.116Z,12.30
2023-03-05T04:25:30.067Z,11.50
2023-03-05T04:27:56.752Z,10.80
2023-03-05T04:30:23.653Z,8.80
2023-03-05T04:32:50.498Z,7.50
2023-03-05T04:35:17.457Z,11.40
2023-03-05T04:37:44.596Z,8.50
2023-03-05T04:40:12.289Z,10.40
2023-03-05T04:42:39.254Z,11.10
2023-03-05T04:45:07.923Z,8.30
2023-03-05T04:47:35.057Z,12.40
2023-03-05T04:50:01.923Z,6.60
2023-03-05T04:52:28.730Z,5.30
2023-03-05T04:54:57.747Z,10.10
2023-03-05T04:57:24.905Z,11.00
2023-03-05T04:59:51.688Z,9.40
2023-03-05T05:02:18.456Z,6.80
2023-03-05T05:04:46.071Z,10.10
2023-03-05T05:07:13.116Z,7.20
2023-03-05T05:09:41.837Z,10.10
2023-03-05T05:12:10.562Z,8.90
2023-03-05T05:14:39.906Z,9.60
2023-03-05T05:17:06.691Z,10.90
2023-03-05T05:19:36.719Z,10.00
2023-03-05T05:22:03.610Z,5.40
2023-03-05T05:24:30.454Z,8.10
2023-03-05T05:26:57.621Z,11.20
2023-03-05T05:29:24.455Z,9.60
2023-03-05T05:31:54.475Z,7.40
2023-03-05T05:34:21.281Z,7.10
2023-03-05T05:36:48.031Z,6.70
2023-03-05T05:39:15.230Z,8.50
2023-03-05T05:41:42.086Z,8.70
2023-03-05T05:44:08.921Z,8.40
2023-03-05T05:46:36.024Z,7.30
2023-03-05T05:49:03.131Z,7.60
2023-03-05T05:51:29.863Z,8.00
2023-03-05T05:53:56.773Z,7.80
2023-03-05T05:56:26.142Z,6.20
2023-03-05T05:58:53.392Z,7.70
2023-03-05T06:01:26.512Z,9.00
2023-03-05T06:03:53.320Z,8.70
2023-03-05T06:06:22.114Z,9.00
2023-03-05T06:08:50.111Z,6.30
2023-03-05T06:11:19.439Z,7.60
2023-03-05T06:13:47.366Z,7.00
2023-03-05T06:16:16.680Z,8.40
2023-03-05T06:18:44.161Z,6.00
2023-03-05T06:21:13.774Z,5.00
2023-03-05T06:23:40.640Z,3.90
2023-03-05T06:26:08.754Z,5.50
2023-03-05T06:28:35.892Z,8.00
2023-03-05T06:31:14.478Z,7.20
2023-03-05T06:33:41.754Z,8.60
2023-03-05T06:36:11.367Z,6.20
2023-03-05T06:38:38.722Z,8.40
2023-03-05T06:41:09.389Z,5.90
2023-03-05T06:43:38.624Z,5.80
2023-03-05T06:46:11.658Z,6.90
2023-03-05T06:48:38.932Z,6.00
2023-03-05T06:51:07.581Z,6.50
2023-03-05T06:53:34.469Z,10.70
2023-03-05T06:56:03.669Z,8.20
2023-03-05T06:58:32.769Z,5.70
2023-03-05T07:00:59.633Z,8.60
2023-03-05T07:03:26.571Z,5.30
2023-03-05T07:05:53.408Z,6.10
2023-03-05T07:08:20.077Z,7.60
2023-03-05T07:10:46.976Z,6.80
2023-03-05T07:13:13.853Z,7.80
2023-03-05T07:15:43.624Z,5.30
2023-03-05T07:18:10.542Z,8.80
2023-03-05T07:20:37.971Z,5.70
2023-03-05T07:23:05.059Z,6.60
2023-03-05T07:25:32.486Z,5.90
2023-03-05T07:27:59.333Z,6.50
2023-03-05T07:30:26.337Z,9.40
2023-03-05T07:32:53.132Z,7.20
2023-03-05T07:35:19.941Z,7.50
2023-03-05T07:37:46.926Z,7.10
2023-03-05T07:40:14.279Z,7.50
2023-03-05T07:42:41.211Z,5.70
2023-03-05T07:45:08.895Z,7.00
2023-03-05T07:47:35.938Z,8.00
2023-03-05T07:50:04.150Z,5.90
2023-03-05T07:52:30.854Z,9.40
2023-03-05T07:54:57.628Z,8.20
2023-03-05T07:57:24.465Z,6.50
2023-03-05T07:59:51.263Z,7.50
2023-03-05T08:02:21.761Z,8.80
2023-03-05T08:04:48.697Z,5.20
2023-03-05T08:07:16.462Z,4.80
2023-03-05T08:09:43.426Z,3.90
2023-03-05T08:12:10.617Z,6.10
2023-03-05T08:14:38.140Z,5.70
2023-03-05T08:17:06.147Z,4.90
2023-03-05T08:19:35.723Z,7.30
2023-03-05T08:22:02.555Z,5.00
2023-03-05T08:24:29.958Z,7.00
2023-03-05T08:26:58.088Z,4.90
2023-03-05T08:29:25.705Z,5.40
2023-03-05T08:31:53.780Z,6.40
2023-03-05T08:34:23.650Z,8.00
2023-03-05T08:36:50.598Z,5.90
2023-03-05T08:39:17.351Z,5.80
2023-03-05T08:41:44.185Z,6.00
2023-03-05T08:44:11.438Z,5.70
2023-03-05T08:46:41.302Z,5.70
2023-03-05T08:49:08.138Z,7.30
2023-03-05T08:51:36.112Z,5.10
2023-03-05T08:54:07.064Z,4.60
2023-03-05T08:56:37.355Z,4.40
2023-03-05T08:59:04.856Z,4.70
2023-03-05T09:01:32.523Z,6.20
2023-03-05T09:04:00.188Z,5.10
2023-03-05T09:06:27.899Z,4.00
2023-03-05T09:08:54.835Z,3.80
2023-03-05T09:11:22.032Z,5.20
2023-03-05T09:13:48.856Z,5.30
2023-03-05T09:16:17.480Z,7.80
2023-03-05T09:18:46.490Z,4.20
2023-03-05T09:21:17.604Z,4.80
2023-03-05T09:23:45.044Z,5.00
2023-03-05T09:26:13.451Z,6.40
2023-03-05T09:28:43.064Z,5.10
2023-03-05T09:31:10.983Z,5.90
2023-03-05T09:33:38.582Z,7.70
2023-03-05T09:36:14.275Z,3.80
2023-03-05T09:38:41.478Z,3.90
2023-03-05T09:41:24.094Z,4.80
2023-03-05T09:43:57.555Z,4.70
2023-03-05T09:46:50.389Z,4.70
2023-03-05T09:49:48.822Z,5.60
2023-03-05T09:52:20.340Z,4.60
2023-03-05T09:54:52.997Z,2.60
2023-03-05T09:57:56.911Z,3.30
2023-03-05T10:00:45.216Z,2.90
2023-03-05T10:03:24.055Z,3.70
2023-03-05T10:05:59.752Z,5.70
2023-03-05T10:08:32.654Z,4.80
2023-03-05T10:11:03.039Z,4.20
2023-03-05T10:13:37.306Z,4.30
2023-03-05T10:16:26.002Z,6.00
2023-03-05T10:19:06.963Z,5.10
2023-03-05T10:21:46.290Z,11.00
2023-03-05T10:24:44.243Z,5.40
2023-03-05T10:27:26.354Z,3.40
2023-03-05T10:30:00.244Z,6.20
2023-03-05T10:32:33.125Z,4.10
2023-03-05T10:35:39.504Z,4.60
2023-03-05T10:38:12.565Z,11.80
2023-03-05T10:40:52.473Z,5.80
2023-03-05T10:43:51.493Z,4.40
2023-03-05T10:46:24.347Z,4.00
2023-03-05T10:48:56.548Z,5.90
2023-03-05T10:51:30.403Z,4.30
2023-03-05T10:54:06.009Z,3.90
2023-03-05T10:56:33.073Z,6.30
2023-03-05T10:58:59.906Z,3.00
2023-03-05T11:01:31.900Z,4.80
2023-03-05T11:04:07.347Z,6.20
2023-03-05T11:06:37.232Z,3.40
2023-03-05T11:09:24.504Z,3.50
2023-03-05T11:12:00.487Z,4.50
2023-03-05T11:14:33.542Z,3.00
2023-03-05T11:17:11.682Z,4.40
2023-03-05T11:19:39.758Z,6.80
2023-03-05T11:22:16.501Z,4.20
2023-03-05T11:24:46.921Z,3.90
2023-03-05T11:27:31.516Z,3.70
2023-03-05T11:30:01.433Z,5.20
2023-03-05T11:32:29.953Z,2.60
2023-03-05T11:34:59.218Z,3.40
2023-03-05T11:37:35.124Z,2.10
2023-03-05T11:40:08.566Z,2.70
2023-03-05T11:42:35.520Z,4.30
2023-03-05T11:45:05.528Z,4.20
2023-03-05T11:47:32.280Z,4.60
2023-03-05T11:50:08.160Z,5.60
2023-03-05T11:52:46.438Z,2.70
2023-03-05T11:55:17.742Z,5.10
2023-03-05T11:58:01.631Z,3.40
2023-03-05T12:00:31.514Z,2.90
2023-03-05T12:03:05.193Z,5.30
2023-03-05T12:05:32.916Z,4.20
2023-03-05T12:08:01.773Z,4.50
2023-03-05T12:10:32.188Z,2.50
2023-03-05T12:13:01.911Z,4.30
2023-03-05T12:15:31.563Z,3.60
2023-03-05T12:18:26.149Z,2.50
2023-03-05T12:21:15.604Z,3.20
2023-03-05T12:23:59.264Z,5.50
2023-03-05T12:27:04.016Z,3.80
2023-03-05T12:29:44.821Z,2.90
2023-03-05T12:32:43.917Z,5.60
2023-03-05T12:35:30.742Z,2.40
2023-03-05T12:38:00.899Z,4.50
2023-03-05T12:40:35.145Z,11.30
2023-03-05T12:43:29.117Z,5.20
2023-03-05T12:46:24.416Z,5.40
2023-03-05T12:51:33.257Z,7.40
2023-03-05T12:54:39.910Z,5.90
2023-03-05T12:57:19.335Z,3.90
2023-03-05T12:59:58.459Z,2.70
2023-03-05T13:02:28.477Z,3.90
2023-03-05T13:04:59.721Z,2.40
2023-03-05T13:07:26.980Z,4.20
2023-03-05T13:09:58.207Z,3.20
2023-03-05T13:12:27.648Z,3.10
2023-03-05T13:15:06.547Z,3.20
2023-03-05T13:18:03.626Z,1.70
2023-03-05T13:20:34.062Z,2.10
2023-03-05T13:23:21.392Z,3.00
2023-03-05T13:26:01.909Z,3.50
2023-03-05T13:28:29.443Z,4.80
2023-03-05T13:31:04.946Z,2.20
2023-03-05T13:33:35.156Z,4.40
2023-03-05T13:36:06.430Z,4.60
2023-03-05T13:38:39.466Z,4.80
2023-03-05T13:41:19.527Z,2.30
2023-03-05T13:43:55.098Z,5.70
2023-03-05T13:46:34.289Z,1.60
2023-03-05T13:49:23.697Z,3.60
2023-03-05T13:51:55.801Z,2.20
2023-03-05T13:54:24.388Z,3.70
2023-03-05T13:57:04.539Z,3.90
2023-03-05T13:59:41.006Z,7.60
2023-03-05T14:02:19.691Z,14.00
2023-03-05T14:04:48.150Z,12.20
2023-03-05T14:07:41.428Z,7.40
2023-03-05T14:10:28.457Z,3.50
2023-03-05T14:12:55.824Z,3.90
2023-03-05T14:15:23.952Z,4.50
2023-03-05T14:17:51.765Z,1.80
2023-03-05T14:20:23.524Z,2.90
2023-03-05T14:23:01.226Z,3.10
2023-03-05T14:25:36.621Z,6.40
2023-03-05T14:28:25.461Z,2.90
2023-03-05T14:30:54.690Z,4.80
2023-03-05T14:33:27.608Z,3.40
2023-03-05T14:35:55.008Z,5.60
2023-03-05T14:38:28.159Z,5.30
2023-03-05T14:40:55.156Z,5.70
2023-03-05T14:43:22.045Z,5.10
2023-03-05T14:45:49.531Z,3.90
2023-03-05T14:48:19.199Z,5.20
2023-03-05T14:50:53.690Z,7.10
2023-03-05T14:53:24.479Z,4.90
2023-03-05T14:55:57.070Z,3.50
2023-03-05T14:58:27.660Z,6.30
2023-03-05T15:00:55.436Z,8.30
2023-03-05T15:03:23.133Z,3.10
2023-03-05T15:05:52.108Z,5.70
2023-03-05T15:08:22.168Z,5.30
2023-03-05T15:10:51.556Z,5.50
2023-03-05T15:13:19.627Z,5.30
2023-03-05T15:15:50.693Z,3.40
2023-03-05T15:18:19.860Z,5.10
2023-03-05T15:20:49.058Z,4.90
2023-03-05T15:23:16.039Z,3.40
2023-03-05T15:25:42.869Z,4.00
2023-03-05T15:28:10.228Z,3.20
2023-03-05T15:30:47.297Z,2.50
2023-03-05T15:33:16.782Z,5.20
2023-03-05T15:35:44.179Z,4.90
2023-03-05T15:38:13.572Z,7.30
2023-03-05T15:40:40.421Z,3.40
2023-03-05T15:43:10.644Z,3.80
2023-03-05T15:45:37.799Z,5.30
2023-03-05T15:48:04.744Z,4.50
2023-03-05T15:50:31.485Z,5.00
2023-03-05T15:53:01.520Z,5.10
2023-03-05T15:55:28.690Z,5.00
2023-03-05T15:57:55.367Z,3.70
2023-03-05T16:00:25.789Z,5.20
2023-03-05T16:02:53.250Z,5.80
2023-03-05T16:05:20.102Z,6.00
2023-03-05T16:07:49.192Z,5.40
2023-03-05T16:10:21.835Z,4.40
2023-03-05T16:12:55.607Z,7.70
2023-03-05T16:15:22.722Z,5.60
2023-03-05T16:17:53.558Z,5.30
2023-03-05T16:20:21.344Z,5.60
2023-03-05T16:22:48.232Z,6.50
2023-03-05T16:25:15.171Z,6.20
2023-03-05T16:27:42.137Z,7.40
2023-03-05T16:30:12.218Z,6.50
2023-03-05T16:32:39.167Z,5.10
2023-03-05T16:35:06.891Z,4.60
2023-03-05T16:37:33.831Z,5.20
2023-03-05T16:40:00.680Z,4.60
2023-03-05T16:42:27.629Z,7.60
2023-03-05T16:44:54.883Z,5.30
2023-03-05T16:47:21.732Z,5.70
2023-03-05T16:49:48.481Z,5.80
2023-03-05T16:52:19.724Z,6.30
2023-03-05T16:54:50.411Z,6.70
2023-03-05T16:57:22.172Z,5.00
2023-03-05T16:59:48.999Z,7.40
2023-03-05T17:02:15.683Z,7.30
2023-03-05T17:04:42.754Z,5.00
2023-03-05T17:07:10.522Z,6.20
2023-03-05T17:09:37.908Z,6.80
2023-03-05T17:12:07.104Z,5.80
2023-03-05T17:14:33.806Z,5.70
2023-03-05T17:17:01.619Z,6.00
2023-03-05T17:19:28.778Z,7.30
2023-03-05T17:21:55.710Z,8.70
2023-03-05T17:24:22.933Z,8.50
2023-03-05T17:26:50.328Z,6.70
2023-03-05T17:29:19.147Z,7.30
2023-03-05T17:31:46.983Z,6.50
2023-03-05T17:34:14.302Z,6.60
2023-03-05T17:36:41.118Z,7.00
2023-03-05T17:39:08.954Z,5.30
2023-03-05T17:41:35.973Z,7.50
2023-03-05T17:44:05.153Z,5.70
2023-03-05T17:46:31.939Z,5.90
2023-03-05T17:48:58.680Z,8.60
2023-03-05T17:51:29.013Z,6.30
2023-03-05T17:53:55.758Z,9.00
2023-03-05T17:56:23.140Z,7.40
2023-03-05T17:58:51.214Z,5.50
2023-03-05T18:01:32.939Z,5.10
2023-03-05T18:03:59.983Z,7.00
2023-03-05T18:06:27.426Z,6.30
2023-03-05T18:08:56.798Z,8.10
2023-03-05T18:11:23.743Z,6.40
2023-03-05T18:13:50.811Z,7.60
2023-03-05T18:16:18.469Z,8.10
2023-03-05T18:18:45.549Z,6.20
2023-03-05T18:21:12.468Z,7.90
2023-03-05T18:23:39.454Z,7.80
2023-03-05T18:26:06.268Z,7.00
2023-03-05T18:28:33.305Z,8.00
2023-03-05T18:31:01.529Z,7.00
2023-03-05T18:33:30.974Z,8.50
2023-03-05T18:35:58.206Z,7.60
2023-03-05T18:38:27.751Z,7.90
2023-03-05T18:40:56.745Z,6.50
2023-03-05T18:43:24.738Z,6.00
2023-03-05T18:45:53.232Z,7.30
2023-03-05T18:48:20.780Z,6.90
2023-03-05T18:50:51.721Z,6.30
2023-03-05T18:53:19.129Z,7.20
2023-03-05T18:55:46.131Z,9.70
2023-03-05T18:58:17.552Z,7.10
2023-03-05T19:00:47.813Z,7.20
2023-03-05T19:03:20.649Z,8.00
2023-03-05T19:05:50.276Z,5.40
2023-03-05T19:08:17.689Z,5.00
2023-03-05T19:10:44.508Z,6.60
2023-03-05T19:13:43.823Z,6.10
2023-03-05T19:16:14.827Z,5.50
2023-03-05T19:19:30.303Z,7.70
2023-03-05T19:21:59.772Z,6.00
2023-03-05T19:24:29.554Z,8.50
2023-03-05T19:27:01.377Z,7.90
2023-03-05T19:29:33.141Z,10.30
2023-03-05T19:32:00.119Z,9.10
2023-03-05T19:34:27.142Z,7.80
2023-03-05T19:36:54.184Z,8.10
2023-03-05T19:39:23.888Z,8.70
2023-03-05T19:41:50.963Z,8.60
2023-03-05T19:44:19.497Z,9.10
2023-03-05T19:46:48.564Z,6.30
2023-03-05T19:49:16.552Z,6.80
2023-03-05T19:51:44.184Z,7.80
2023-03-05T19:54:16.998Z,8.10
2023-03-05T19:56:47.894Z,8.60
2023-03-05T19:59:17.841Z,8.20
2023-03-05T20:01:45.891Z,6.90
2023-03-05T20:04:16.347Z,7.00
2023-03-05T20:06:43.184Z,9.50
2023-03-05T20:09:10.261Z,6.80
2023-03-05T20:11:37.769Z,8.30
2023-03-05T20:14:04.788Z,8.20
2023-03-05T20:16:36.077Z,8.80
2023-03-05T20:19:04.864Z,7.00
2023-03-05T20:21:41.283Z,6.00
2023-03-05T20:24:10.895Z,7.70
2023-03-05T20:26:41.170Z,7.10
2023-03-05T20:29:08.534Z,8.20
2023-03-05T20:31:37.395Z,10.40
2023-03-05T20:34:10.168Z,9.30
2023-03-05T20:36:37.154Z,7.40
2023-03-05T20:39:07.536Z,7.90
2023-03-05T20:41:36.487Z,8.10
2023-03-05T20:44:03.836Z,7.30
2023-03-05T20:46:33.320Z,6.10
2023-03-05T20:49:01.927Z,11.90
2023-03-05T20:51:36.511Z,7.70
2023-03-05T20:54:08.889Z,6.30
2023-03-05T20:56:36.087Z,6.20
2023-03-05T20:59:05.733Z,7.40
2023-03-05T21:01:33.883Z,9.90
2023-03-05T21:04:03.177Z,6.90
2023-03-05T21:06:31.648Z,7.60
2023-03-05T21:08:59.733Z,7.10
2023-03-05T21:11:26.696Z,7.40
2023-03-05T21:13:53.504Z,7.70
2023-03-05T21:16:23.294Z,8.70
2023-03-05T21:18:51.386Z,8.50
2023-03-05T21:21:21.225Z,6.70
2023-03-05T21:23:48.186Z,5.90
2023-03-05T21:26:16.031Z,7.70
2023-03-05T21:28:43.006Z,7.00
2023-03-05T21:31:15.834Z,6.00
2023-03-05T21:33:42.707Z,6.20
2023-03-05T21:36:10.446Z,6.70
2023-03-05T21:38:37.201Z,9.30
2023-03-05T21:41:05.328Z,6.80
2023-03-05T21:43:33.409Z,5.10
2023-03-05T21:46:02.124Z,4.70
2023-03-05T21:48:29.565Z,6.20
2023-03-05T21:50:57.517Z,6.70
2023-03-05T21:53:24.885Z,6.80
2023-03-05T21:56:21.038Z,7.10
2023-03-05T21:58:51.049Z,7.70
2023-03-05T22:01:19.621Z,5.80
2023-03-05T22:03:47.112Z,6.10
2023-03-05T22:06:16.112Z,7.80
2023-03-05T22:08:43.096Z,5.60
2023-03-05T22:11:11.000Z,5.60
2023-03-05T22:13:38.123Z,6.20
2023-03-05T22:16:09.295Z,5.90
2023-03-05T22:18:36.609Z,7.50
2023-03-05T22:21:03.878Z,6.60
2023-03-05T22:23:34.210Z,7.10
2023-03-05T22:26:03.156Z,5.60
2023-03-05T22:28:30.771Z,7.50
2023-03-05T22:30:57.649Z,5.50
2023-03-05T22:33:24.661Z,8.30
2023-03-05T22:35:51.801Z,6.40
2023-03-05T22:38:20.864Z,5.90
2023-03-05T22:40:49.475Z,4.30
2023-03-05T22:43:17.488Z,5.10
2023-03-05T22:45:44.343Z,5.60
2023-03-05T22:48:13.850Z,5.80
2023-03-05T22:50:42.204Z,5.10
2023-03-05T22:53:09.373Z,7.80
2023-03-05T22:55:40.339Z,5.20
2023-03-05T22:58:07.465Z,6.10
2023-03-05T23:00:34.248Z,7.90
2023-03-05T23:03:01.536Z,5.60
2023-03-05T23:05:28.397Z,5.10
2023-03-05T23:07:55.159Z,4.40
2023-03-05T23:10:26.948Z,4.70
2023-03-05T23:12:55.718Z,6.60
2023-03-05T23:15:23.557Z,4.20
2023-03-05T23:17:50.530Z,6.40
2023-03-05T23:20:20.906Z,6.10
2023-03-05T23:22:48.832Z,5.60
2023-03-05T23:25:16.673Z,6.20
2023-03-05T23:27:44.083Z,4.60
2023-03-05T23:30:20.845Z,5.50
2023-03-05T23:32:52.628Z,5.70
2023-03-05T23:35:22.364Z,7.40
2023-03-05T23:37:49.491Z,5.20
2023-03-05T23:40:19.453Z,6.20
2023-03-05T23:42:46.624Z,6.30
2023-03-05T23:45:15.873Z,6.60
2023-03-05T23:47:42.903Z,9.50
2023-03-05T23:50:14.418Z,6.30
2023-03-05T23:52:42.817Z,4.60
2023-03-05T23:55:15.485Z,4.90
2023-03-05T23:57:42.957Z,5.80
